Time;durP1;ratioP1;P1;durP2;ratioP2;P2;SDS_P1;SDS_P2;PMS_P1;PMS_P2;Temp;Humidity;BMP_temperature;BMP_pressure;BME280_temperature;BME280_humidity;BME280_pressure;Samples;Min_cycle;Max_cycle;Signal;HPM_P1;HPM_P2
2021/10/03 00:01:59;;;;;;;1.55;0.38;;;;;;;10.96;87.80;97998.84;4921833;29;20040;-73
2021/10/03 00:04:34;;;;;;;0.20;0.20;;;;;;;10.96;87.72;98010.56;4931493;29;20687;-76
2021/10/03 00:07:03;;;;;;;2.60;0.20;;;;;;;10.95;87.77;98030.88;4915358;29;20056;-76
2021/10/03 00:09:30;;;;;;;4.57;0.20;;;;;;;11.03;87.71;98031.16;4914996;29;20355;-75
2021/10/03 00:11:55;;;;;;;0.52;0.10;;;;;;;10.92;87.57;98008.84;4919367;29;20036;-76
2021/10/03 00:14:22;;;;;;;0.30;0.13;;;;;;;11.01;88.06;98023.28;4938719;29;20086;-77
2021/10/03 00:16:52;;;;;;;1.02;0.13;;;;;;;10.87;87.63;98017.22;4938650;29;20031;-78
2021/10/03 00:19:25;;;;;;;1.08;0.13;;;;;;;10.89;87.80;98031.34;4921629;29;20036;-77
2021/10/03 00:21:51;;;;;;;2.55;0.20;;;;;;;10.91;88.03;98045.53;4940886;29;20043;-78
2021/10/03 00:24:17;;;;;;;4.18;0.28;;;;;;;10.87;87.62;98039.88;4899083;29;20036;-78
2021/10/03 00:26:45;;;;;;;2.38;0.30;;;;;;;10.89;87.99;98047.75;4928563;29;20028;-78
2021/10/03 00:29:20;;;;;;;1.20;0.45;;;;;;;10.92;88.21;98047.09;4930567;29;20039;-80
2021/10/03 00:32:00;;;;;;;;;;;;;;;;;;;;;
2021/10/03 00:34:31;;;;;;;0.10;0.10;;;;;;;10.87;87.52;98020.75;4940090;29;20123;-79
2021/10/03 00:37:00;;;;;;;0.60;0.10;;;;;;;10.77;88.05;98002.75;4905032;29;20028;-79
2021/10/03 00:39:28;;;;;;;1.75;0.38;;;;;;;10.88;87.29;98030.56;4944251;29;20158;-77
2021/10/03 00:42:01;;;;;;;0.47;0.15;;;;;;;10.86;88.01;98021.88;4936038;29;20118;-76
2021/10/03 00:44:30;;;;;;;0.30;0.10;;;;;;;10.73;87.82;97992.81;4925634;29;20031;-77
2021/10/03 00:46:55;;;;;;;0.30;0.10;;;;;;;10.83;87.44;98022.53;4919144;29;20024;-78
2021/10/03 00:49:24;;;;;;;0.82;0.20;;;;;;;10.81;87.77;98009.19;4924902;29;20473;-76
2021/10/03 00:52:35;;;;;;;1.60;0.30;;;;;;;10.77;87.73;98005.50;4942355;29;20430;-76
2021/10/03 00:58:23;;;;;;;0.60;0.20;;;;;;;10.76;87.56;98033.16;4899450;29;20124;-76
2021/10/03 01:00:49;;;;;;;0.20;0.20;;;;;;;10.52;87.67;98012.63;4915854;29;20111;-77
2021/10/03 01:03:18;;;;;;;1.40;0.32;;;;;;;10.69;87.56;98052.00;4922971;29;20033;-76
2021/10/03 01:05:54;;;;;;;;;;;;;;;;;;;;;
2021/10/03 01:08:22;;;;;;;2.47;0.25;;;;;;;10.58;87.88;98068.72;4941250;29;20110;-78
2021/10/03 01:11:04;;;;;;;1.63;0.20;;;;;;;10.50;87.67;98058.63;4941600;29;20127;-79
2021/10/03 01:13:31;;;;;;;0.80;0.30;;;;;;;10.29;87.74;98031.94;4926635;29;20044;-78
2021/10/03 01:15:56;;;;;;;1.00;0.28;;;;;;;10.49;87.56;98067.94;4921614;29;20564;-77
2021/10/03 01:18:31;;;;;;;3.58;0.13;;;;;;;10.34;87.46;98050.13;4943154;29;20039;-80
2021/10/03 01:21:16;;;;;;;1.65;0.25;;;;;;;10.28;87.61;98040.47;4944440;29;20102;-79
2021/10/03 01:23:42;;;;;;;5.88;0.20;;;;;;;10.21;87.85;98035.47;4946245;29;20059;-78
2021/10/03 01:26:13;;;;;;;1.15;0.30;;;;;;;10.23;87.71;98033.22;4943270;29;20027;-78
2021/10/03 01:28:46;;;;;;;1.95;0.30;;;;;;;10.18;87.77;98030.66;4925042;29;20024;-77
2021/10/03 01:31:52;;;;;;;0.28;0.20;;;;;;;10.27;87.67;98039.63;4943748;29;20035;-78
2021/10/03 01:34:22;;;;;;;0.55;0.22;;;;;;;10.02;87.85;98010.44;4927841;29;20048;-77
2021/10/03 01:36:50;;;;;;;1.17;0.25;;;;;;;10.08;87.88;98020.84;4937043;29;20024;-78
2021/10/03 01:39:41;;;;;;;;;;;;;;;;;;;;;
2021/10/03 01:42:12;;;;;;;0.80;0.17;;;;;;;10.05;88.06;98016.03;4939010;29;20529;-77
2021/10/03 01:44:46;;;;;;;0.50;0.20;;;;;;;10.12;87.57;98029.22;4919920;29;20028;-78
2021/10/03 01:47:12;;;;;;;0.63;0.20;;;;;;;9.94;87.86;97998.34;4943711;29;20111;-78
2021/10/03 01:49:37;;;;;;;0.77;0.20;;;;;;;9.93;87.92;98008.47;4932114;29;20685;-77
2021/10/03 01:52:03;;;;;;;0.90;0.20;;;;;;;10.06;87.54;98044.13;4942675;29;20106;-77
2021/10/03 01:54:29;;;;;;;3.90;0.20;;;;;;;9.98;87.89;98036.75;4942956;29;20170;-77
2021/10/03 01:56:54;;;;;;;2.33;0.40;;;;;;;10.02;88.44;98043.19;4940687;29;20100;-77
2021/10/03 01:59:20;;;;;;;0.55;0.20;;;;;;;10.09;88.29;98038.03;4935873;29;20036;-78
2021/10/03 02:01:51;;;;;;;1.73;0.47;;;;;;;10.07;87.93;98029.34;4923442;29;20028;-77
2021/10/03 02:04:20;;;;;;;6.38;0.52;;;;;;;10.05;87.79;98045.28;4903704;29;20039;-77
2021/10/03 02:06:49;;;;;;;0.98;0.35;;;;;;;10.12;88.46;98051.84;4920106;29;20019;-77
2021/10/03 02:09:24;;;;;;;1.45;0.30;;;;;;;10.12;87.99;98048.34;4940295;29;20064;-78
2021/10/03 02:11:53;;;;;;;2.40;0.45;;;;;;;10.00;87.93;98023.56;4923153;29;20026;-79
2021/10/03 02:14:30;;;;;;;;;;;;;;;;;;;;;
2021/10/03 02:17:00;;;;;;;1.27;0.22;;;;;;;10.05;88.14;98037.88;4943117;29;20500;-77
2021/10/03 02:19:35;;;;;;;0.15;0.10;;;;;;;9.99;87.85;98027.41;4941061;29;20102;-78
2021/10/03 02:22:00;;;;;;;0.28;0.20;;;;;;;10.08;88.29;98030.97;4928294;29;20033;-78
2021/10/03 02:24:54;;;;;;;;;;;;;;;;;;;;;
2021/10/03 02:31:11;;;;;;;0.75;0.20;;;;;;;10.04;87.62;98024.53;4879337;29;20093;-78
2021/10/03 02:33:38;;;;;;;3.25;0.20;;;;;;;9.95;87.27;98011.69;4868446;29;20169;-78
2021/10/03 02:36:11;;;;;;;0.20;0.20;;;;;;;9.92;87.31;98022.47;4919194;29;20403;-79
2021/10/03 02:38:50;;;;;;;0.20;0.20;;;;;;;9.98;87.46;98047.69;4927476;29;20055;-79
2021/10/03 02:41:27;;;;;;;0.30;0.10;;;;;;;10.00;87.72;98050.88;4920326;29;20103;-78
2021/10/03 02:44:48;;;;;;;0.17;0.17;;;;;;;10.11;87.32;98049.44;4925300;29;20031;-79
2021/10/03 02:47:13;;;;;;;0.20;0.20;;;;;;;10.03;87.28;98061.97;4939562;29;20039;-79
2021/10/03 02:49:42;;;;;;;5.78;0.30;;;;;;;10.09;87.56;98076.25;4926676;29;20023;-80
2021/10/03 02:52:09;;;;;;;7.03;0.93;;;;;;;10.05;87.49;98075.31;4936167;29;20046;-80
2021/10/03 02:54:58;;;;;;;0.40;0.10;;;;;;;9.95;87.33;98058.09;4908764;29;20027;-77
2021/10/03 02:57:23;;;;;;;0.28;0.20;;;;;;;9.79;87.66;98035.13;4912869;29;20036;-77
2021/10/03 02:59:52;;;;;;;0.43;0.28;;;;;;;9.81;87.28;98037.53;4908328;29;20046;-75
2021/10/03 03:02:17;;;;;;;0.47;0.10;;;;;;;9.93;87.52;98052.16;4912566;29;20470;-74
2021/10/03 03:04:42;;;;;;;0.70;0.22;;;;;;;9.96;87.74;98050.72;4920222;29;20039;-76
2021/10/03 03:07:08;;;;;;;0.30;0.10;;;;;;;9.90;87.68;98052.81;4924224;29;20085;-75
2021/10/03 03:09:33;;;;;;;0.70;0.30;;;;;;;9.98;87.68;98053.13;4900245;29;20028;-75
2021/10/03 03:11:59;;;;;;;0.47;0.25;;;;;;;9.95;87.36;98063.56;4902086;29;20047;-74
2021/10/03 03:14:24;;;;;;;1.05;0.30;;;;;;;9.99;87.27;98074.66;4921028;29;20062;-75
2021/10/03 03:16:53;;;;;;;0.10;0.10;;;;;;;9.96;87.31;98081.56;4886916;29;20047;-74
2021/10/03 03:19:19;;;;;;;0.85;0.30;;;;;;;9.90;87.59;98063.72;4919021;29;20043;-74
2021/10/03 03:21:49;;;;;;;1.60;0.55;;;;;;;9.84;87.20;98053.28;4934331;29;20054;-73
2021/10/03 03:24:26;;;;;;;0.45;0.20;;;;;;;9.84;86.91;98065.00;4939957;29;20039;-74
2021/10/03 03:26:55;;;;;;;0.50;0.40;;;;;;;9.73;87.50;98053.56;4939162;29;20019;-74
2021/10/03 03:29:20;;;;;;;2.03;0.38;;;;;;;9.61;87.01;98054.19;4906624;29;20051;-76
2021/10/03 03:31:58;;;;;;;;;;;;;;;;;;;;;
2021/10/03 03:34:34;;;;;;;;;;;;;;;;;;;;;
2021/10/03 03:37:00;;;;;;;2.03;0.20;;;;;;;9.39;86.78;98071.47;4920054;29;20023;-75
2021/10/03 03:39:26;;;;;;;0.25;0.13;;;;;;;9.32;86.87;98062.13;4922637;29;20794;-75
2021/10/03 03:41:51;;;;;;;0.43;0.10;;;;;;;9.25;87.26;98060.66;4917144;29;20027;-74
2021/10/03 03:44:19;;;;;;;0.40;0.20;;;;;;;9.43;87.21;98082.53;4938417;29;20027;-74
2021/10/03 03:46:45;;;;;;;0.20;0.20;;;;;;;9.37;87.18;98067.44;4908084;29;20047;-75
2021/10/03 03:49:10;;;;;;;0.47;0.10;;;;;;;9.37;87.29;98072.91;4932781;29;20470;-75
2021/10/03 03:51:36;;;;;;;0.00;0.00;;;;;;;9.39;87.43;98076.13;4923140;29;20020;-75
2021/10/03 03:54:25;;;;;;;0.13;0.10;;;;;;;9.39;87.06;98081.59;4907086;29;20078;-76
2021/10/03 03:57:31;;;;;;;1.27;0.28;;;;;;;9.40;87.53;98089.44;4919772;29;20031;-76
2021/10/03 03:59:59;;;;;;;2.17;0.30;;;;;;;9.49;87.70;98094.13;4917947;29;20112;-76
2021/10/03 04:02:25;;;;;;;1.52;0.47;;;;;;;9.40;87.50;98062.19;4936618;29;20389;-76
2021/10/03 04:05:01;;;;;;;;;;;;;;;;;;;;;
2021/10/03 04:07:34;;;;;;;0.80;0.38;;;;;;;9.42;87.43;98048.22;4941430;29;20098;-76
2021/10/03 04:10:17;;;;;;;0.52;0.30;;;;;;;9.46;87.83;98048.38;4922227;29;20059;-76
2021/10/03 04:12:42;;;;;;;0.85;0.20;;;;;;;9.48;87.55;98055.13;4920969;29;20454;-76
2021/10/03 04:15:20;;;;;;;0.38;0.38;;;;;;;9.59;87.57;98081.00;4938027;29;20032;-75
2021/10/03 04:18:03;;;;;;;0.50;0.22;;;;;;;9.54;87.09;98083.88;4924741;29;20032;-75
2021/10/03 04:20:36;;;;;;;0.60;0.30;;;;;;;9.41;87.32;98068.41;4939321;29;20055;-74
2021/10/03 04:23:14;;;;;;;0.43;0.22;;;;;;;9.42;87.68;98086.41;4935840;29;20055;-75
2021/10/03 04:25:44;;;;;;;1.42;0.25;;;;;;;9.41;87.81;98090.25;4920049;29;20063;-75
2021/10/03 04:28:18;;;;;;;4.50;0.20;;;;;;;9.56;87.12;98105.38;4929680;29;20023;-75
2021/10/03 04:30:45;;;;;;;1.05;0.20;;;;;;;9.63;87.74;98110.38;4922914;29;20038;-75
2021/10/03 04:33:40;;;;;;;0.52;0.20;;;;;;;9.64;88.00;98109.25;4939724;29;20047;-74
2021/10/03 04:36:13;;;;;;;2.25;0.28;;;;;;;9.65;87.51;98113.59;4928057;29;20039;-74
2021/10/03 04:38:42;;;;;;;1.23;0.30;;;;;;;9.58;87.27;98106.69;4924144;29;20032;-75
2021/10/03 04:41:10;;;;;;;2.88;0.50;;;;;;;9.58;87.34;98100.44;4949456;29;20111;-75
2021/10/03 04:43:38;;;;;;;0.55;0.30;;;;;;;9.49;87.51;98097.66;4937704;29;20040;-75
2021/10/03 04:46:04;;;;;;;0.05;0.05;;;;;;;9.63;87.21;98113.13;4934200;29;20035;-75
2021/10/03 04:48:29;;;;;;;0.20;0.10;;;;;;;9.52;87.33;98086.13;4949709;29;20034;-74
2021/10/03 04:51:05;;;;;;;0.10;0.10;;;;;;;9.58;87.25;98084.84;4931019;29;20040;-74
2021/10/03 04:53:35;;;;;;;0.00;0.00;;;;;;;9.64;87.32;98073.78;4945703;29;20028;-74
2021/10/03 04:56:12;;;;;;;0.25;0.10;;;;;;;9.60;87.29;98059.97;4929268;29;20032;-74
2021/10/03 04:58:37;;;;;;;0.20;0.10;;;;;;;9.57;87.05;98087.88;4946422;29;20054;-74
2021/10/03 05:01:06;;;;;;;0.10;0.10;;;;;;;9.50;87.07;98088.34;4942211;29;20482;-74
2021/10/03 05:03:35;;;;;;;0.22;0.10;;;;;;;9.47;87.08;98099.09;4904546;29;20039;-75
2021/10/03 05:06:13;;;;;;;;;;;;;;;;;;;;;
2021/10/03 05:08:49;;;;;;;;;;;;;;;;;;;;;
2021/10/03 05:11:19;;;;;;;0.43;0.35;;;;;;;9.24;86.71;98118.25;4930022;29;20102;-74
2021/10/03 05:13:44;;;;;;;0.20;0.20;;;;;;;9.37;87.10;98152.78;4918427;29;20052;-74
2021/10/03 05:16:12;;;;;;;0.10;0.10;;;;;;;9.38;87.30;98151.69;4927752;29;20031;-74
2021/10/03 05:18:38;;;;;;;0.20;0.20;;;;;;;9.37;87.04;98160.19;4928042;29;20035;-73
2021/10/03 05:21:11;;;;;;;0.30;0.10;;;;;;;9.31;86.80;98155.97;4942392;29;20459;-73
2021/10/03 05:23:50;;;;;;;0.17;0.10;;;;;;;9.33;87.35;98162.75;4930484;29;20045;-73
2021/10/03 05:26:16;;;;;;;1.35;0.20;;;;;;;9.27;86.94;98150.34;4926864;29;20065;-74
2021/10/03 05:28:44;;;;;;;0.73;0.10;;;;;;;9.24;86.98;98146.34;4940654;29;20031;-76
2021/10/03 05:31:10;;;;;;;0.20;0.10;;;;;;;9.27;87.05;98144.88;4923727;29;20043;-75
2021/10/03 05:33:39;;;;;;;0.10;0.10;;;;;;;9.23;87.02;98142.00;4915558;29;20035;-75
2021/10/03 05:36:08;;;;;;;0.22;0.10;;;;;;;9.25;86.88;98141.66;4914504;29;20036;-75
2021/10/03 05:38:38;;;;;;;0.20;0.20;;;;;;;9.34;86.52;98141.72;4925488;29;20046;-75
2021/10/03 05:41:11;;;;;;;1.30;0.55;;;;;;;9.40;86.94;98143.19;4924185;29;20059;-74
2021/10/03 05:43:39;;;;;;;0.22;0.10;;;;;;;9.40;87.12;98154.09;4938328;29;20019;-75
2021/10/03 05:46:07;;;;;;;0.13;0.10;;;;;;;9.37;87.01;98144.59;4938922;29;20066;-75
2021/10/03 05:48:33;;;;;;;1.65;0.30;;;;;;;9.40;87.12;98165.00;4928155;29;20019;-75
2021/10/03 05:51:11;;;;;;;;;;;;;;;;;;;;;
2021/10/03 05:53:37;;;;;;;0.08;0.08;;;;;;;9.39;86.82;98153.31;4945712;29;20075;-75
2021/10/03 05:56:03;;;;;;;0.20;0.10;;;;;;;9.38;87.21;98156.34;4944812;29;20088;-75
2021/10/03 05:58:32;;;;;;;1.23;0.20;;;;;;;9.39;86.66;98163.41;4928615;29;20719;-75
2021/10/03 06:00:58;;;;;;;1.67;0.20;;;;;;;9.36;87.20;98158.56;4927082;29;20036;-74
2021/10/03 06:03:32;;;;;;;2.20;0.10;;;;;;;9.31;86.63;98161.44;4944297;29;20035;-75
2021/10/03 06:05:57;;;;;;;3.47;0.30;;;;;;;9.36;87.06;98180.38;4940925;29;20379;-74
2021/10/03 06:08:26;;;;;;;0.75;0.20;;;;;;;9.30;87.09;98173.44;4923650;29;20036;-75
2021/10/03 06:10:54;;;;;;;1.58;0.40;;;;;;;9.24;86.78;98168.16;4909581;29;20060;-75
2021/10/03 06:13:22;;;;;;;0.32;0.20;;;;;;;9.38;86.53;98191.81;4936877;29;20055;-76
2021/10/03 06:16:00;;;;;;;;;;;;;;;;;;;;;
2021/10/03 06:18:28;;;;;;;0.35;0.08;;;;;;;9.29;87.02;98180.03;4946488;29;20118;-74
2021/10/03 06:20:57;;;;;;;0.52;0.20;;;;;;;9.40;87.10;98195.00;4923620;29;20498;-75
2021/10/03 06:23:23;;;;;;;1.25;0.10;;;;;;;9.37;86.90;98201.88;4945074;29;20477;-74
2021/10/03 06:25:58;;;;;;;2.20;0.35;;;;;;;9.21;87.16;98192.50;4932227;29;20047;-76
2021/10/03 06:28:24;;;;;;;0.50;0.30;;;;;;;9.24;87.12;98211.78;4944640;29;20020;-75
2021/10/03 06:30:58;;;;;;;1.00;0.22;;;;;;;9.36;87.43;98241.22;4942422;29;20030;-75
2021/10/03 06:33:31;;;;;;;0.17;0.10;;;;;;;9.30;87.59;98220.66;4944973;29;20027;-75
2021/10/03 06:39:18;;;;;;;0.32;0.10;;;;;;;9.31;87.57;98243.25;4943238;29;20039;-75
2021/10/03 06:41:46;;;;;;;0.35;0.15;;;;;;;9.35;87.34;98244.25;4942950;29;20028;-75
2021/10/03 06:44:11;;;;;;;0.00;0.00;;;;;;;9.40;87.36;98263.22;4914753;29;20047;-75
2021/10/03 06:47:08;;;;;;;1.20;0.45;;;;;;;9.52;87.24;98281.72;4910350;29;20031;-76
2021/10/03 06:49:25;;;;;;;1.08;0.55;;;;;;;9.45;87.45;98282.19;4937120;29;20565;-75
2021/10/03 06:51:53;;;;;;;2.08;0.30;;;;;;;9.47;87.13;98296.31;4926649;29;20032;-75
2021/10/03 06:54:19;;;;;;;0.57;0.32;;;;;;;9.54;87.56;98302.13;4941936;29;20024;-76
2021/10/03 06:56:47;;;;;;;3.33;1.67;;;;;;;9.53;87.08;98291.53;4932876;29;20024;-76
2021/10/03 06:59:23;;;;;;;;;;;;;;;;;;;;;
2021/10/03 07:01:53;;;;;;;2.15;0.30;;;;;;;9.52;86.90;98287.19;4925600;29;20084;-76
2021/10/03 07:04:26;;;;;;;0.40;0.30;;;;;;;9.64;87.86;98322.09;4942160;29;20032;-75
2021/10/03 07:06:52;;;;;;;0.65;0.25;;;;;;;9.66;87.69;98336.25;4941704;29;20019;-76
2021/10/03 07:09:17;;;;;;;1.17;0.50;;;;;;;9.66;87.59;98353.41;4931540;29;20038;-75
2021/10/03 07:11:43;;;;;;;3.80;0.30;;;;;;;9.65;87.63;98337.34;4928904;29;20040;-76
2021/10/03 07:14:15;;;;;;;0.45;0.17;;;;;;;9.58;87.45;98324.97;4948893;29;20036;-75
2021/10/03 07:16:43;;;;;;;0.35;0.35;;;;;;;9.70;87.14;98354.41;4933626;29;20048;-73
2021/10/03 07:19:09;;;;;;;0.17;0.17;;;;;;;9.64;87.82;98357.56;4932285;29;20096;-73
2021/10/03 07:21:54;;;;;;;2.45;0.22;;;;;;;9.76;87.91;98363.28;4912476;29;20036;-73
2021/10/03 07:24:29;;;;;;;5.55;0.60;;;;;;;9.81;87.66;98378.72;4911279;29;20051;-73
2021/10/03 07:26:57;;;;;;;0.95;0.70;;;;;;;9.90;87.58;98390.50;4938210;29;20024;-75
2021/10/03 07:29:23;;;;;;;0.55;0.20;;;;;;;9.86;87.27;98389.53;4924501;29;20126;-74
2021/10/03 07:31:50;;;;;;;1.73;0.28;;;;;;;10.01;87.77;98412.91;4942595;29;20043;-74
2021/10/03 07:34:16;;;;;;;1.75;0.50;;;;;;;10.01;87.74;98393.81;4905775;29;20189;-75
2021/10/03 07:36:42;;;;;;;2.38;0.40;;;;;;;10.06;87.30;98389.03;4941946;29;20089;-72
2021/10/03 07:39:10;;;;;;;1.02;0.20;;;;;;;10.17;87.45;98383.28;4924691;29;20063;-74
2021/10/03 07:41:38;;;;;;;1.13;0.40;;;;;;;10.25;87.73;98369.69;4940256;29;20061;-75
2021/10/03 07:44:06;;;;;;;2.25;0.40;;;;;;;10.32;87.41;98363.75;4916318;29;20060;-73
2021/10/03 07:46:31;;;;;;;3.83;0.70;;;;;;;10.49;87.14;98384.91;4917371;29;20655;-74
2021/10/03 07:48:57;;;;;;;1.98;0.30;;;;;;;10.45;86.99;98379.28;4937136;29;20159;-72
2021/10/03 07:51:22;;;;;;;2.90;0.20;;;;;;;10.64;87.63;98391.88;4923729;29;20071;-75
2021/10/03 07:53:48;;;;;;;1.58;0.25;;;;;;;10.61;87.00;98376.91;4913041;29;20034;-77
2021/10/03 07:56:26;;;;;;;5.07;0.35;;;;;;;10.64;86.63;98380.94;4923301;29;20039;-76
2021/10/03 07:58:52;;;;;;;0.95;0.30;;;;;;;10.75;87.35;98393.22;4922698;29;20092;-71
2021/10/03 08:01:18;;;;;;;0.88;0.40;;;;;;;10.77;86.40;98385.50;4916681;29;20501;-72
2021/10/03 08:03:44;;;;;;;6.80;0.50;;;;;;;10.76;86.79;98388.53;4924302;29;20031;-73
2021/10/03 08:06:19;;;;;;;6.85;0.35;;;;;;;10.81;86.92;98397.41;4892005;29;20038;-72
2021/10/03 08:08:52;;;;;;;0.85;0.20;;;;;;;10.94;86.82;98409.34;4919018;29;20477;-78
2021/10/03 08:11:18;;;;;;;1.25;0.20;;;;;;;11.02;86.70;98409.69;4912567;29;20023;-72
2021/10/03 08:13:43;;;;;;;0.88;0.22;;;;;;;11.08;86.89;98406.50;4916733;29;20561;-73
2021/10/03 08:16:08;;;;;;;0.30;0.20;;;;;;;11.15;86.65;98395.06;4934140;29;20038;-77
2021/10/03 08:18:35;;;;;;;4.65;0.32;;;;;;;11.23;86.25;98402.50;4936511;29;20028;-71
2021/10/03 08:21:01;;;;;;;2.47;0.55;;;;;;;11.31;86.18;98404.44;4933210;29;20127;-72
2021/10/03 08:23:26;;;;;;;2.17;0.35;;;;;;;11.38;85.96;98409.44;4915944;29;20091;-69
2021/10/03 08:25:52;;;;;;;1.75;0.20;;;;;;;11.52;86.53;98414.75;4919305;29;20390;-72
2021/10/03 08:28:17;;;;;;;0.40;0.22;;;;;;;11.64;85.81;98422.34;4934053;29;20032;-72
2021/10/03 08:30:42;;;;;;;0.20;0.20;;;;;;;11.85;85.67;98419.75;4933189;29;20058;-72
2021/10/03 08:33:08;;;;;;;7.20;0.52;;;;;;;12.00;85.94;98430.25;4935490;29;20457;-73
2021/10/03 08:35:34;;;;;;;2.30;0.28;;;;;;;12.13;85.06;98444.06;4931402;29;20441;-72
2021/10/03 08:38:00;;;;;;;0.57;0.20;;;;;;;12.24;85.32;98437.13;4915176;29;20652;-72
2021/10/03 08:40:26;;;;;;;0.75;0.30;;;;;;;12.46;84.58;98444.31;4929801;29;20042;-73
2021/10/03 08:42:52;;;;;;;1.67;0.30;;;;;;;12.62;84.08;98455.56;4916129;29;20095;-72
2021/10/03 08:45:18;;;;;;;0.32;0.20;;;;;;;12.69;83.15;98455.06;4938412;29;20035;-72
2021/10/03 08:47:43;;;;;;;0.17;0.17;;;;;;;12.69;82.77;98453.13;4918112;29;20020;-73
2021/10/03 08:50:16;;;;;;;9.07;0.63;;;;;;;12.58;82.18;98449.13;4936178;29;20028;-72
2021/10/03 08:52:48;;;;;;;2.63;0.70;;;;;;;12.93;83.85;98454.47;4939417;29;20770;-73
2021/10/03 08:55:38;;;;;;;3.03;0.47;;;;;;;14.08;82.75;98453.41;4943462;29;20031;-73
2021/10/03 08:58:14;;;;;;;;;;;;;;;;;;;;;
2021/10/03 09:00:50;;;;;;;0.25;0.10;;;;;;;16.96;75.06;98471.63;4942622;29;20102;-74
2021/10/03 09:03:19;;;;;;;1.27;0.25;;;;;;;17.86;72.16;98480.03;4940807;29;20110;-73
2021/10/03 09:06:09;;;;;;;1.33;0.40;;;;;;;18.95;69.75;98480.16;4940026;29;20036;-73
2021/10/03 09:08:43;;;;;;;2.58;0.20;;;;;;;19.45;64.82;98483.75;4943010;29;20024;-75
2021/10/03 09:11:13;;;;;;;0.55;0.22;;;;;;;19.73;63.66;98487.28;4946116;29;20090;-76
2021/10/03 09:13:53;;;;;;;0.82;0.45;;;;;;;19.92;62.70;98494.72;4944816;29;20533;-78
2021/10/03 09:16:29;;;;;;;1.42;0.38;;;;;;;20.18;61.54;98489.13;4942794;29;20035;-76
2021/10/03 09:19:10;;;;;;;0.60;0.28;;;;;;;20.30;59.98;98490.06;4941488;29;20027;-75
2021/10/03 09:21:41;;;;;;;1.50;0.30;;;;;;;20.54;60.68;98485.94;4931471;29;20035;-75
2021/10/03 09:24:20;;;;;;;5.82;0.30;;;;;;;20.80;57.37;98495.38;4933928;29;20039;-76
2021/10/03 09:27:00;;;;;;;0.90;0.30;;;;;;;21.03;57.93;98507.09;4915687;29;20028;-77
2021/10/03 09:29:32;;;;;;;1.27;0.22;;;;;;;21.13;57.24;98505.59;4947441;29;20114;-78
2021/10/03 09:32:20;;;;;;;1.02;0.20;;;;;;;21.50;56.28;98498.34;4934793;29;20019;-77
2021/10/03 09:34:52;;;;;;;1.98;0.63;;;;;;;21.48;53.93;98507.06;4927397;29;20032;-73
2021/10/03 09:37:33;;;;;;;1.02;0.30;;;;;;;21.67;53.84;98516.34;4945736;29;20024;-78
2021/10/03 09:40:07;;;;;;;1.02;0.25;;;;;;;21.68;51.89;98524.31;4928568;29;20039;-78
2021/10/03 09:42:35;;;;;;;2.65;0.50;;;;;;;21.62;51.89;98520.28;4947332;29;20019;-78
2021/10/03 09:45:17;;;;;;;3.58;0.50;;;;;;;21.77;51.85;98538.69;4926683;29;20028;-79
2021/10/03 09:47:45;;;;;;;2.05;0.38;;;;;;;21.93;51.92;98529.22;4918522;29;20043;-75
2021/10/03 09:50:15;;;;;;;6.15;0.20;;;;;;;22.09;52.69;98520.56;4925619;29;20422;-77
2021/10/03 09:52:52;;;;;;;;;;;;;;;;;;;;;
2021/10/03 09:55:53;;;;;;;;;;;;;;;;;;;;;
2021/10/03 09:58:07;;;;;;;0.85;0.40;;;;;;;22.39;52.91;98556.53;4934586;29;20035;-75
2021/10/03 10:01:06;;;;;;;2.92;0.40;;;;;;;22.14;53.73;98540.47;4933847;29;20038;-76
2021/10/03 10:03:31;;;;;;;1.30;0.55;;;;;;;21.92;52.15;98555.47;4921265;29;20055;-77
2021/10/03 10:05:58;;;;;;;2.33;0.40;;;;;;;21.71;53.90;98545.81;4955833;29;20020;-75
2021/10/03 10:08:31;;;;;;;2.13;0.57;;;;;;;21.78;53.58;98561.72;4937942;29;20094;-75
2021/10/03 10:11:04;;;;;;;5.20;0.95;;;;;;;21.95;54.53;98577.75;4934966;29;20178;-76
2021/10/03 10:13:32;;;;;;;4.88;0.50;;;;;;;21.94;48.57;98559.44;4948138;29;20047;-77
2021/10/03 10:16:53;;;;;;;;;;;;;;;;;;;;;
2021/10/03 10:30:10;;;;;;;18.88;0.70;;;;;;;22.47;47.34;98621.41;4870334;29;20049;-78
2021/10/03 10:32:57;;;;;;;7.63;0.60;;;;;;;22.57;47.78;98583.66;4890968;29;20136;-76
2021/10/03 10:35:26;;;;;;;0.85;0.30;;;;;;;22.68;48.55;98581.72;4898366;29;20047;-79
2021/10/03 10:37:54;;;;;;;2.30;0.35;;;;;;;23.17;48.89;98579.47;4912473;29;20035;-78
2021/10/03 10:40:32;;;;;;;1.70;0.22;;;;;;;23.70;47.92;98586.28;4928782;29;20118;-77
2021/10/03 10:43:06;;;;;;;2.33;0.25;;;;;;;24.16;45.13;98588.22;4945846;29;20028;-78
2021/10/03 10:45:40;;;;;;;0.75;0.30;;;;;;;24.30;40.49;98590.19;4942125;29;20047;-78
2021/10/03 10:48:08;;;;;;;3.65;0.50;;;;;;;24.28;40.52;98589.00;4942959;29;20035;-79
2021/10/03 10:50:49;;;;;;;3.08;0.32;;;;;;;24.20;40.50;98572.25;4931956;29;20031;-80
2021/10/03 10:53:38;;;;;;;1.33;0.40;;;;;;;23.97;41.58;98566.34;4940018;29;20066;-76
2021/10/03 10:56:30;;;;;;;1.33;0.50;;;;;;;24.38;43.73;98591.72;4923227;29;20032;-77
2021/10/03 10:59:02;;;;;;;2.78;0.55;;;;;;;24.62;40.72;98566.13;4920578;29;20036;-77
2021/10/03 11:01:33;;;;;;;0.70;0.35;;;;;;;24.94;41.71;98590.34;4945195;29;20083;-76
2021/10/03 11:04:15;;;;;;;1.40;0.40;;;;;;;25.05;39.77;98582.69;4930724;29;20031;-80
2021/10/03 11:06:46;;;;;;;3.22;0.50;;;;;;;25.17;38.33;98603.78;4944938;29;20505;-77
2021/10/03 11:09:23;;;;;;;;;;;;;;;;;;;;;
2021/10/03 11:12:07;;;;;;;1.63;0.57;;;;;;;25.74;40.53;98577.38;4938804;29;20096;-78
2021/10/03 11:15:47;;;;;;;1.27;0.50;;;;;;;26.39;38.29;98593.56;4937297;28;20055;-79
2021/10/03 11:21:42;;;;;;;1.30;0.40;;;;;;;26.36;37.11;98591.63;4880109;29;20036;-76
2021/10/03 11:27:45;;;;;;;;;;;;;;;;;;;;;
2021/10/03 11:31:48;;;;;;;0.88;0.30;;;;;;;26.85;33.19;98616.66;4873404;29;20104;-79
2021/10/03 11:41:56;;;;;;;3.40;0.47;;;;;;;24.38;36.87;98613.28;4858069;29;20053;-78
2021/10/03 11:44:26;;;;;;;1.85;0.32;;;;;;;23.75;34.93;98621.34;4928350;29;20104;-78
2021/10/03 11:47:50;;;;;;;1.50;0.75;;;;;;;23.11;35.08;98606.94;4926021;29;20024;-80
2021/10/03 11:50:40;;;;;;;;;;;;;;;;;;;;;
2021/10/03 11:53:59;;;;;;;1.67;0.40;;;;;;;21.17;38.89;98644.56;4902666;29;20116;-76
2021/10/03 11:56:45;;;;;;;0.85;0.40;;;;;;;19.67;45.63;98644.88;4893208;29;20045;-77
2021/10/03 11:59:53;;;;;;;3.58;0.82;;;;;;;18.20;50.85;98649.09;4889479;29;20048;-77
2021/10/03 12:02:33;;;;;;;0.93;0.35;;;;;;;17.47;54.32;98651.25;4890856;29;20130;-78
2021/10/03 12:05:00;;;;;;;1.45;0.47;;;;;;;18.18;52.43;98631.25;4891029;29;20039;-77
2021/10/03 12:07:39;;;;;;;;;;;;;;;;;;;;;
2021/10/03 12:20:48;;;;;;;2.33;0.40;;;;;;;26.94;30.89;98679.44;4844830;29;20061;-77
2021/10/03 12:23:21;;;;;;;0.43;0.20;;;;;;;27.02;30.33;98662.53;4924247;29;20127;-79
2021/10/03 12:26:20;;;;;;;4.80;0.30;;;;;;;27.09;29.18;98659.63;4923800;29;20021;-78
2021/10/03 15:02:57;;;;;;;2.53;0.52;;;;;;;24.13;35.30;98879.41;4918749;29;20113;-78
2021/10/03 15:09:27;;;;;;;;;;;;;;;;;;;;;
2021/10/03 15:12:43;;;;;;;1.48;0.52;;;;;;;21.86;39.42;98913.13;4883543;29;20041;-78
2021/10/03 15:15:22;;;;;;;;;;;;;;;;;;;;;
2021/10/03 15:21:11;;;;;;;2.10;0.45;;;;;;;19.90;45.15;98919.47;4949925;28;20046;-76
2021/10/03 15:23:52;;;;;;;2.58;0.50;;;;;;;20.83;44.47;98911.28;4968204;28;20030;-81
2021/10/03 15:27:38;;;;;;;;;;;;;;;;;;;;;
2021/10/03 15:30:19;;;;;;;;;;;;;;;;;;;;;
2021/10/03 15:33:09;;;;;;;6.30;0.70;;;;;;;24.41;36.47;98891.81;4955142;28;20071;-79
2021/10/03 15:39:09;;;;;;;3.83;0.65;;;;;;;25.20;34.54;98928.22;4967741;28;20940;-83
2021/10/03 15:41:38;;;;;;;2.63;0.75;;;;;;;25.17;33.76;98906.59;4966043;28;20019;-78
2021/10/03 15:48:32;;;;;;;4.95;0.88;;;;;;;23.74;37.20;98938.66;4979633;28;20670;-74
2021/10/03 16:01:23;;;;;;;;;;;;;;;;;;;;;
2021/10/03 16:04:31;;;;;;;;;;;;;;;;;;;;;
2021/10/03 16:07:06;;;;;;;;;;;;;;;;;;;;;
2021/10/03 16:09:32;;;;;;;5.15;0.68;;;;;;;20.36;44.94;99002.06;4967202;28;20616;-76
2021/10/03 16:12:01;;;;;;;2.55;0.98;;;;;;;21.10;43.96;99004.59;4964299;28;20026;-76
2021/10/03 16:14:35;;;;;;;1.65;1.23;;;;;;;21.74;41.86;99020.72;4968745;28;20035;-76
2021/10/03 16:17:03;;;;;;;7.90;1.10;;;;;;;21.67;41.20;99012.25;4966140;28;20041;-77
2021/10/03 16:19:29;;;;;;;1.05;0.40;;;;;;;21.21;41.80;99006.75;4970905;28;20041;-75
2021/10/03 16:21:55;;;;;;;3.28;1.15;;;;;;;20.55;43.03;99023.44;4961109;28;20389;-78
2021/10/03 16:24:21;;;;;;;5.07;0.73;;;;;;;20.09;44.75;99021.31;4991411;28;20031;-80
2021/10/03 16:26:53;;;;;;;5.20;0.57;;;;;;;20.10;45.15;99033.25;4993015;28;20115;-75
2021/10/03 16:32:55;;;;;;;2.15;0.65;;;;;;;20.52;43.60;99027.75;4861577;29;20082;-78